• Join FlightAware (Why Join?)
  • Login
  • US Flag 
02:18PM EDT


 

Airport Tracker/Info


-or-


 

Live Flight TrackerFlight Track Log ✈ RPA4937 ✈ 07-May-2013 ✈ KBWI - KEWR

Flight Track Log - Related Links

Times and Time Zones

All times are in EDT time to prevent confusion due to time zone crossing. See the RPA4937 flight status page for this flight to view local times or setup timezone preferences in your user account.

Time Position Orientation Groundspeed Altitude Reporting Facility
EDT Latitude Longitude Course Direction KTS MPH feet Rate Location/Type
05:46AM 39.1500 -76.6167 49° Northeast 174 200 3,700  Level Potomac TRACON
05:47AM 39.1667 -76.5500 72° East 223 257 5,800 1,680 Climbing Potomac TRACON
05:48AM 39.2000 -76.4833 57° Northeast 255 293 7,000 600 Climbing Potomac TRACON
05:49AM 39.1901 -76.1632 46° Northeast  Level FlightAware Approximate
05:49AM 39.2500 -76.4000 52° Northeast 258 297 7,000  Level Potomac TRACON
05:50AM 39.2677 -76.0765 46° Northeast  Level FlightAware Approximate
05:50AM 39.3000 -76.3333 46° Northeast 269 310 8,100  Level Potomac TRACON
05:51AM 39.3397 -75.9821 49° Northeast  Level FlightAware Approximate
05:51AM 39.3333 -76.2500 63° Northeast 276 318 10,200  Level Potomac TRACON
05:52AM 39.3833 -76.1667 52° Northeast 309 356 11,000 300 Climbing Potomac TRACON
05:54AM 39.4833 -75.9833 55° Northeast 327 376 11,100  Climbing Philadelphia TRACON
05:55AM 39.5167 -75.8833 67° East 330 380 11,100 -60 Level Philadelphia TRACON
05:56AM 39.5667 -75.7833 57° Northeast 322 371 11,000  Descending Philadelphia TRACON
05:57AM 39.6000 -75.6667 70° East 325 374 11,100  Climbing Philadelphia TRACON
05:58AM 39.6500 -75.5500 61° Northeast 325 374 11,000 -600 Descending Philadelphia TRACON
05:59AM 39.6833 -75.4667 63° Northeast 279 321 9,900 -1,080 Descending Philadelphia TRACON
06:00AM 39.7167 -75.3667 67° East 277 319 8,800 -1,020 Descending Philadelphia TRACON
06:01AM 39.7500 -75.3000 57° Northeast 272 313 8,000 -960 Descending Philadelphia TRACON
06:02AM 39.7833 -75.2167 62° Northeast 263 303 7,100 -480 Descending Philadelphia TRACON
06:03AM 39.8167 -75.1167 67° East 251 289 7,000 -60 Descending Philadelphia TRACON
06:04AM 39.8333 -75.0500 72° East 265 305 7,000  Level Philadelphia TRACON
06:05AM 39.8833 -74.9500 57° Northeast 268 308 7,000  Level Philadelphia TRACON
06:06AM 39.9333 -74.8833 46° Northeast 269 310 7,000  Level Philadelphia TRACON
06:08AM 40.0333 -74.7500 46° Northeast 271 312 7,000  Level New York TRACON
06:09AM 40.0833 -74.6667 52° Northeast 268 308 7,000  Level New York TRACON
06:10AM 40.1167 -74.6167 49° Northeast 264 304 7,000  Level New York TRACON
06:11AM 40.1667 -74.5333 52° Northeast 264 304 7,000  Level New York TRACON
06:12AM 40.2333 -74.4667 37° Northeast 266 306 7,000  Level New York TRACON
06:13AM 40.2833 -74.4167 37° Northeast 268 308 7,000 -300 Level New York TRACON
06:14AM 40.3500 -74.3833 21° North 231 266 6,500 -960 Descending New York TRACON
06:15AM 40.4167 -74.3333 30° Northeast 200 230 4,900 -1,440 Descending New York TRACON
06:16AM 40.4667 -74.3167 14° North 202 232 3,500 -960 Descending New York TRACON
06:17AM 40.5167 -74.2833 27° Northeast 188 216 3,000 -480 Descending New York TRACON